createdAt,value
2022-10-08T00:01:30.514Z,80.89
2022-10-08T00:03:59.006Z,81.09
2022-10-08T00:06:30.263Z,81.21
2022-10-08T00:09:04.826Z,81.30
2022-10-08T00:11:36.356Z,81.65
2022-10-08T00:14:05.469Z,81.50
2022-10-08T00:16:36.695Z,81.11
2022-10-08T00:19:08.009Z,81.00
2022-10-08T00:21:38.550Z,80.83
2022-10-08T00:24:08.396Z,80.92
2022-10-08T00:26:42.541Z,81.00
2022-10-08T00:29:13.429Z,80.83
2022-10-08T00:31:44.969Z,80.96
2022-10-08T00:34:31.141Z,81.45
2022-10-08T00:36:59.130Z,81.32
2022-10-08T00:39:27.070Z,81.68
2022-10-08T00:41:56.314Z,81.59
2022-10-08T00:44:42.813Z,81.98
2022-10-08T00:47:33.110Z,82.09
2022-10-08T00:50:24.796Z,82.07
2022-10-08T00:52:58.713Z,82.03
2022-10-08T00:55:29.940Z,82.09
2022-10-08T00:58:02.325Z,82.15
2022-10-08T01:00:31.396Z,82.29
2022-10-08T01:03:00.862Z,82.57
2022-10-08T01:05:42.184Z,82.65
2022-10-08T01:08:33.819Z,82.37
2022-10-08T01:11:04.815Z,82.16
2022-10-08T01:13:56.609Z,81.92
2022-10-08T01:16:35.038Z,81.99
2022-10-08T01:19:40.950Z,82.00
2022-10-08T01:22:25.602Z,81.79
2022-10-08T01:25:15.884Z,81.81
2022-10-08T01:27:47.258Z,81.98
2022-10-08T01:30:18.169Z,82.18
2022-10-08T01:33:12.606Z,82.06
2022-10-08T01:35:44.760Z,82.13
2022-10-08T01:38:16.725Z,82.48
2022-10-08T01:40:50.201Z,82.55
2022-10-08T01:43:22.149Z,82.34
2022-10-08T01:45:57.364Z,82.26
2022-10-08T01:48:36.668Z,82.41
2022-10-08T01:51:09.453Z,82.42
2022-10-08T01:53:39.925Z,82.31
2022-10-08T01:56:12.280Z,82.43
2022-10-08T01:58:56.228Z,82.78
2022-10-08T02:01:37.737Z,82.82
2022-10-08T02:04:24.778Z,82.53
2022-10-08T02:06:57.303Z,82.71
2022-10-08T02:09:29.295Z,83.02
2022-10-08T02:11:57.829Z,83.02
2022-10-08T02:14:27.732Z,83.15
2022-10-08T02:17:07.475Z,83.21
2022-10-08T02:19:54.753Z,83.08
2022-10-08T02:22:29.209Z,83.09
2022-10-08T02:25:12.360Z,83.20
2022-10-08T02:28:00.791Z,83.21
2022-10-08T02:30:56.787Z,83.04
2022-10-08T02:33:26.965Z,82.84
2022-10-08T02:35:59.718Z,82.70
2022-10-08T02:38:35.282Z,82.95
2022-10-08T02:41:07.895Z,83.15
2022-10-08T02:43:40.452Z,83.36
2022-10-08T02:46:17.980Z,83.40
2022-10-08T02:49:02.797Z,83.26
2022-10-08T02:51:33.077Z,83.16
2022-10-08T02:54:04.369Z,82.67
2022-10-08T02:56:38.978Z,82.75
2022-10-08T02:59:07.471Z,83.00
2022-10-08T03:01:53.387Z,83.32
2022-10-08T03:04:46.884Z,83.23
2022-10-08T03:07:15.776Z,83.06
2022-10-08T03:09:47.545Z,83.07
2022-10-08T03:12:15.588Z,82.97
2022-10-08T03:14:48.165Z,82.99
2022-10-08T03:17:30.814Z,83.13
2022-10-08T03:20:03.274Z,83.27
2022-10-08T03:22:34.337Z,83.12
2022-10-08T03:25:02.344Z,83.14
2022-10-08T03:27:30.396Z,83.42
2022-10-08T03:30:00.266Z,83.67
2022-10-08T03:32:28.625Z,83.93
2022-10-08T03:34:56.678Z,83.76
2022-10-08T03:37:24.652Z,83.86
2022-10-08T03:39:52.609Z,83.88
2022-10-08T03:42:20.421Z,83.86
2022-10-08T03:44:48.113Z,83.44
2022-10-08T03:47:15.905Z,82.85
2022-10-08T03:49:43.808Z,82.75
2022-10-08T03:52:11.601Z,83.40
2022-10-08T03:54:39.470Z,83.19
2022-10-08T03:57:07.426Z,83.25
2022-10-08T03:59:35.428Z,83.48
2022-10-08T04:02:03.337Z,83.16
2022-10-08T04:04:31.671Z,83.67
2022-10-08T04:06:59.766Z,83.73
2022-10-08T04:09:31.664Z,83.72
2022-10-08T04:12:00.003Z,83.77
2022-10-08T04:14:27.983Z,83.87
2022-10-08T04:16:55.827Z,83.87
2022-10-08T04:19:23.634Z,83.95
2022-10-08T04:21:51.628Z,84.16
2022-10-08T04:24:19.436Z,84.01
2022-10-08T04:26:47.337Z,83.71
2022-10-08T04:29:15.129Z,83.84
2022-10-08T04:31:43.002Z,83.62
2022-10-08T04:34:11.706Z,83.48
2022-10-08T04:36:39.727Z,83.48
2022-10-08T04:39:07.674Z,83.68
2022-10-08T04:41:35.672Z,83.71
2022-10-08T04:44:03.521Z,83.63
2022-10-08T04:46:31.568Z,83.88
2022-10-08T04:49:00.250Z,84.11
2022-10-08T04:51:28.897Z,84.14
2022-10-08T04:53:58.535Z,84.23
2022-10-08T04:56:29.458Z,84.32
2022-10-08T04:58:59.073Z,84.42
2022-10-08T05:01:28.487Z,84.42
2022-10-08T05:03:58.537Z,84.36
2022-10-08T05:06:29.436Z,84.60
2022-10-08T05:09:02.539Z,84.76
2022-10-08T05:11:31.423Z,84.72
2022-10-08T05:13:59.688Z,84.79
2022-10-08T05:16:28.248Z,85.10
2022-10-08T05:18:56.615Z,85.36
2022-10-08T05:21:27.364Z,85.58
2022-10-08T05:23:59.376Z,85.24
2022-10-08T05:26:56.342Z,85.51
2022-10-08T05:29:19.353Z,85.75
2022-10-08T05:31:47.387Z,85.66
2022-10-08T05:34:15.608Z,85.36
2022-10-08T05:36:43.894Z,85.64
2022-10-08T05:39:11.900Z,85.73
2022-10-08T05:41:40.981Z,85.82
2022-10-08T05:44:10.704Z,85.88
2022-10-08T05:46:39.956Z,86.20
2022-10-08T05:49:16.418Z,85.88
2022-10-08T05:51:44.294Z,85.75
2022-10-08T05:54:12.252Z,85.50
2022-10-08T05:56:40.111Z,85.22
2022-10-08T05:59:15.334Z,85.30
2022-10-08T06:01:43.229Z,85.25
2022-10-08T06:04:11.682Z,84.99
2022-10-08T06:06:41.997Z,84.69
2022-10-08T06:09:16.327Z,85.00
2022-10-08T06:11:44.107Z,84.79
2022-10-08T06:14:16.627Z,84.86
2022-10-08T06:16:44.773Z,84.78
2022-10-08T06:19:12.854Z,84.71
2022-10-08T06:21:40.985Z,84.52
2022-10-08T06:24:11.340Z,84.13
2022-10-08T06:26:42.448Z,84.22
2022-10-08T06:29:18.155Z,84.02
2022-10-08T06:31:47.005Z,83.92
2022-10-08T06:34:15.458Z,84.29
2022-10-08T06:36:43.300Z,84.47
2022-10-08T06:39:13.412Z,84.47
2022-10-08T06:41:41.835Z,84.31
2022-10-08T06:44:13.434Z,83.83
2022-10-08T06:46:42.688Z,83.51
2022-10-08T06:49:11.699Z,83.48
2022-10-08T06:51:39.724Z,83.58
2022-10-08T06:54:08.655Z,83.04
2022-10-08T06:56:38.299Z,83.18
2022-10-08T06:59:07.884Z,83.36
2022-10-08T07:01:36.482Z,83.33
2022-10-08T07:04:05.694Z,83.33
2022-10-08T07:06:34.711Z,83.29
2022-10-08T07:09:04.807Z,82.65
2022-10-08T07:11:33.805Z,82.45
2022-10-08T07:14:02.211Z,82.24
2022-10-08T07:16:30.561Z,81.80
2022-10-08T07:18:58.877Z,81.12
2022-10-08T07:21:28.943Z,80.94
2022-10-08T07:23:59.620Z,81.09
2022-10-08T07:26:30.677Z,81.18
2022-10-08T07:29:13.262Z,80.82
2022-10-08T07:31:41.158Z,80.39
2022-10-08T07:34:13.064Z,79.46
2022-10-08T07:36:41.426Z,78.88
2022-10-08T07:39:14.928Z,78.96
2022-10-08T07:41:42.818Z,78.49
2022-10-08T07:44:12.154Z,78.07
2022-10-08T07:46:46.021Z,78.03
2022-10-08T07:49:13.688Z,77.94
2022-10-08T07:51:44.330Z,78.21
2022-10-08T07:54:15.411Z,78.49
2022-10-08T07:56:43.452Z,78.47
2022-10-08T07:59:15.090Z,78.18
2022-10-08T08:01:44.069Z,77.51
2022-10-08T08:04:12.083Z,77.29
2022-10-08T08:06:45.567Z,76.82
2022-10-08T08:09:14.447Z,77.28
2022-10-08T08:11:42.476Z,77.19
2022-10-08T08:14:10.516Z,76.66
2022-10-08T08:16:39.303Z,76.77
2022-10-08T08:19:07.423Z,77.01
2022-10-08T08:21:38.024Z,76.87
2022-10-08T08:24:09.736Z,75.93
2022-10-08T08:26:39.436Z,75.14
2022-10-08T08:29:15.990Z,74.73
2022-10-08T08:31:46.233Z,74.27
2022-10-08T08:34:22.540Z,74.35
2022-10-08T08:36:53.661Z,74.33
2022-10-08T08:39:26.706Z,74.78
2022-10-08T08:42:03.219Z,75.03
2022-10-08T08:44:39.302Z,75.29
2022-10-08T08:47:16.286Z,75.68
2022-10-08T08:49:49.601Z,75.58
2022-10-08T08:52:23.207Z,74.89
2022-10-08T08:54:53.433Z,74.97
2022-10-08T08:57:42.579Z,75.30
2022-10-08T09:00:18.689Z,74.29
2022-10-08T09:03:25.093Z,74.29
2022-10-08T09:05:57.631Z,74.21
2022-10-08T09:08:37.626Z,74.32
2022-10-08T09:11:05.576Z,74.59
2022-10-08T09:13:39.987Z,74.11
2022-10-08T09:16:12.746Z,74.28
2022-10-08T09:18:45.197Z,74.11
2022-10-08T09:21:13.237Z,73.51
2022-10-08T09:23:41.255Z,73.43
2022-10-08T09:26:24.586Z,73.67
2022-10-08T09:28:55.119Z,73.28
2022-10-08T09:31:48.077Z,73.51
2022-10-08T09:34:20.090Z,73.20
2022-10-08T09:36:52.541Z,72.87
2022-10-08T09:39:23.443Z,72.57
2022-10-08T09:42:10.382Z,72.68
2022-10-08T09:44:56.887Z,72.53
2022-10-08T09:47:27.517Z,72.75
2022-10-08T09:50:19.172Z,72.74
2022-10-08T09:52:50.688Z,72.07
2022-10-08T09:55:31.669Z,71.89
2022-10-08T09:58:04.275Z,71.53
2022-10-08T10:00:35.603Z,71.16
2022-10-08T10:03:06.477Z,70.62
2022-10-08T10:05:36.895Z,69.60
2022-10-08T10:08:07.086Z,69.60
2022-10-08T10:10:41.844Z,69.29
2022-10-08T10:13:34.991Z,68.31
2022-10-08T10:16:06.791Z,68.36
2022-10-08T10:18:42.815Z,67.87
2022-10-08T10:21:16.303Z,67.22
2022-10-08T10:24:01.084Z,67.58
2022-10-08T10:26:35.789Z,67.35
2022-10-08T10:29:17.156Z,67.15
2022-10-08T10:32:06.767Z,66.96
2022-10-08T10:34:39.952Z,66.46
2022-10-08T10:37:18.565Z,65.78
2022-10-08T10:39:53.561Z,65.81
2022-10-08T10:42:41.363Z,64.98
2022-10-08T10:45:25.958Z,64.93
2022-10-08T10:47:54.485Z,64.42
2022-10-08T10:50:38.111Z,64.30
2022-10-08T10:53:11.836Z,63.85
2022-10-08T10:56:16.045Z,63.48
2022-10-08T10:58:43.896Z,62.83
2022-10-08T11:01:12.373Z,62.03
2022-10-08T11:04:13.007Z,61.17
2022-10-08T11:06:55.085Z,60.67
2022-10-08T11:09:54.329Z,60.19
2022-10-08T11:12:29.919Z,59.65
2022-10-08T11:15:38.488Z,58.94
2022-10-08T11:18:22.996Z,59.55
2022-10-08T11:20:53.733Z,59.26
2022-10-08T11:23:39.652Z,58.84
2022-10-08T11:26:35.288Z,59.19
2022-10-08T11:29:18.397Z,59.11
2022-10-08T11:31:49.867Z,58.78
2022-10-08T11:34:23.859Z,58.53
2022-10-08T11:37:13.097Z,58.58
2022-10-08T11:39:56.610Z,59.23
2022-10-08T11:42:56.802Z,59.36
2022-10-08T11:45:24.750Z,60.28
2022-10-08T11:47:56.149Z,59.54
2022-10-08T11:50:30.225Z,59.59
2022-10-08T11:53:15.444Z,58.97
2022-10-08T11:55:54.438Z,58.85
2022-10-08T11:58:33.677Z,59.16
2022-10-08T12:01:11.374Z,58.47
2022-10-08T12:03:41.661Z,58.24
2022-10-08T12:06:28.442Z,59.01
2022-10-08T12:09:01.496Z,59.35
2022-10-08T12:11:37.033Z,58.73
2022-10-08T12:14:15.579Z,58.85
2022-10-08T12:16:55.748Z,58.28
2022-10-08T12:19:38.737Z,57.96
2022-10-08T12:22:16.423Z,58.45
2022-10-08T12:24:49.633Z,58.98
2022-10-08T12:27:18.712Z,58.77
2022-10-08T12:30:01.823Z,58.67
2022-10-08T12:32:41.651Z,58.41
2022-10-08T12:35:29.504Z,58.75
2022-10-08T12:38:02.694Z,58.71
2022-10-08T12:41:06.585Z,58.28
2022-10-08T12:43:46.696Z,58.33
2022-10-08T12:46:50.473Z,57.80
2022-10-08T12:49:32.867Z,57.92
2022-10-08T12:52:12.702Z,57.95
2022-10-08T12:54:48.293Z,56.94
2022-10-08T12:57:24.244Z,56.93
2022-10-08T12:59:53.880Z,57.16
2022-10-08T13:02:41.964Z,56.77
2022-10-08T13:05:30.702Z,56.00
2022-10-08T13:07:59.253Z,55.67
2022-10-08T13:10:29.728Z,56.02
2022-10-08T13:13:06.910Z,56.94
2022-10-08T13:15:35.007Z,56.79
2022-10-08T13:18:14.927Z,55.85
2022-10-08T13:20:57.331Z,55.48
2022-10-08T13:23:37.657Z,55.91
2022-10-08T13:26:44.007Z,56.00
2022-10-08T13:29:17.911Z,56.51
2022-10-08T13:31:52.458Z,56.41
2022-10-08T13:34:20.839Z,56.06
2022-10-08T13:36:53.095Z,55.85
2022-10-08T13:39:23.410Z,56.18
2022-10-08T13:41:57.633Z,56.17
2022-10-08T13:44:27.610Z,56.27
2022-10-08T13:46:58.922Z,56.70
2022-10-08T13:49:29.906Z,56.35
2022-10-08T13:51:58.914Z,56.17
2022-10-08T13:54:30.676Z,55.93
2022-10-08T13:56:59.497Z,56.20
2022-10-08T13:59:30.630Z,56.29
2022-10-08T14:01:58.929Z,56.51
2022-10-08T14:04:27.262Z,55.99
2022-10-08T14:06:57.825Z,55.80
2022-10-08T14:09:28.917Z,55.97
2022-10-08T14:12:01.360Z,55.96
2022-10-08T14:14:29.352Z,55.53
2022-10-08T14:16:57.252Z,55.73
2022-10-08T14:19:25.087Z,55.88
2022-10-08T14:21:55.776Z,55.81
2022-10-08T14:24:23.727Z,55.83
2022-10-08T14:26:51.769Z,56.39
2022-10-08T14:29:19.531Z,57.10
2022-10-08T14:31:47.468Z,56.84
2022-10-08T14:34:15.423Z,56.88
2022-10-08T14:36:43.485Z,57.32
2022-10-08T14:39:11.592Z,57.31
2022-10-08T14:41:40.952Z,57.39
2022-10-08T14:44:08.733Z,57.69
2022-10-08T14:46:36.712Z,58.12
2022-10-08T14:49:05.443Z,58.31
2022-10-08T14:51:38.602Z,58.61
2022-10-08T14:54:10.809Z,58.41
2022-10-08T14:56:39.046Z,58.89
2022-10-08T14:59:15.224Z,59.32
2022-10-08T15:01:43.471Z,59.56
2022-10-08T15:04:14.810Z,59.85
2022-10-08T15:06:43.110Z,59.98
2022-10-08T15:09:14.506Z,60.22
2022-10-08T15:11:43.244Z,60.54
2022-10-08T15:14:11.038Z,60.66
2022-10-08T15:16:39.733Z,60.73
2022-10-08T15:19:08.354Z,60.75
2022-10-08T15:21:36.488Z,61.17
2022-10-08T15:24:04.555Z,61.22
2022-10-08T15:26:32.777Z,61.36
2022-10-08T15:29:03.028Z,61.77
2022-10-08T15:31:31.063Z,62.06
2022-10-08T15:34:01.970Z,62.35
2022-10-08T15:36:32.943Z,62.46
2022-10-08T15:39:07.739Z,62.61
2022-10-08T15:41:37.648Z,62.84
2022-10-08T15:44:26.564Z,62.97
2022-10-08T15:46:59.859Z,62.99
2022-10-08T15:49:31.845Z,62.78
2022-10-08T15:52:00.288Z,63.07
2022-10-08T15:54:28.276Z,63.15
2022-10-08T15:56:56.227Z,63.55
2022-10-08T15:59:26.997Z,63.89
2022-10-08T16:01:54.968Z,64.09
2022-10-08T16:04:22.880Z,64.15
2022-10-08T16:06:51.727Z,64.27
2022-10-08T16:09:21.844Z,64.43
2022-10-08T16:11:50.955Z,64.57
2022-10-08T16:14:21.762Z,64.73
2022-10-08T16:16:50.566Z,64.77
2022-10-08T16:19:21.473Z,64.88
2022-10-08T16:21:52.728Z,65.12
2022-10-08T16:24:20.832Z,64.98
2022-10-08T16:26:49.022Z,65.32
2022-10-08T16:29:18.395Z,65.45
2022-10-08T16:31:47.317Z,65.67
2022-10-08T16:34:18.272Z,65.65
2022-10-08T16:36:48.414Z,65.83
2022-10-08T16:39:18.734Z,65.77
2022-10-08T16:41:47.897Z,65.75
2022-10-08T16:44:18.758Z,65.94
2022-10-08T16:46:53.235Z,65.89
2022-10-08T16:49:27.092Z,65.82
2022-10-08T16:52:03.381Z,65.92
2022-10-08T16:54:31.694Z,65.90
2022-10-08T16:56:59.923Z,65.97
2022-10-08T16:59:29.534Z,66.37
2022-10-08T17:01:59.438Z,66.81
2022-10-08T17:04:29.245Z,66.71
2022-10-08T17:06:57.554Z,66.89
2022-10-08T17:09:25.361Z,67.12
2022-10-08T17:11:53.575Z,67.24
2022-10-08T17:14:24.668Z,67.07
2022-10-08T17:16:52.865Z,67.34
2022-10-08T17:19:20.766Z,67.62
2022-10-08T17:21:48.636Z,67.47
2022-10-08T17:24:16.655Z,67.56
2022-10-08T17:26:44.547Z,67.66
2022-10-08T17:29:13.016Z,67.84
2022-10-08T17:31:41.739Z,67.92
2022-10-08T17:34:11.699Z,67.90
2022-10-08T17:36:42.736Z,68.25
2022-10-08T17:39:13.612Z,68.40
2022-10-08T17:41:43.253Z,68.46
2022-10-08T17:44:12.149Z,68.46
2022-10-08T17:46:47.003Z,68.70
2022-10-08T17:49:17.241Z,68.61
2022-10-08T17:51:46.159Z,68.50
2022-10-08T17:54:17.536Z,68.53
2022-10-08T17:56:46.426Z,68.37
2022-10-08T17:59:16.414Z,68.50
2022-10-08T18:01:45.794Z,68.63
2022-10-08T18:04:16.504Z,69.00
2022-10-08T18:06:46.658Z,69.24
2022-10-08T18:09:18.563Z,69.49
2022-10-08T18:11:50.928Z,69.72
2022-10-08T18:14:20.295Z,69.61
2022-10-08T18:16:48.945Z,70.04
2022-10-08T18:19:18.406Z,70.21
2022-10-08T18:21:46.836Z,70.18
2022-10-08T18:24:16.247Z,70.38
2022-10-08T18:26:44.510Z,70.37
2022-10-08T18:29:16.171Z,70.19
2022-10-08T18:31:45.015Z,70.31
2022-10-08T18:34:16.592Z,70.65
2022-10-08T18:36:46.169Z,70.49
2022-10-08T18:39:17.852Z,70.67
2022-10-08T18:41:48.032Z,70.82
2022-10-08T18:44:24.566Z,70.85
2022-10-08T18:46:52.933Z,70.79
2022-10-08T18:49:30.456Z,71.09
2022-10-08T18:51:59.053Z,71.23
2022-10-08T18:54:27.468Z,71.43
2022-10-08T18:56:56.840Z,71.62
2022-10-08T18:59:24.765Z,71.53
2022-10-08T19:01:56.981Z,71.97
2022-10-08T19:04:32.741Z,72.27
2022-10-08T19:07:00.697Z,72.21
2022-10-08T19:09:28.923Z,72.41
2022-10-08T19:11:57.867Z,72.48
2022-10-08T19:14:25.971Z,72.98
2022-10-08T19:17:01.591Z,73.05
2022-10-08T19:19:31.798Z,73.19
2022-10-08T19:22:01.436Z,73.10
2022-10-08T19:24:29.475Z,73.50
2022-10-08T19:27:01.461Z,73.62
2022-10-08T19:29:33.406Z,73.70
2022-10-08T19:32:03.633Z,73.70
2022-10-08T19:34:31.632Z,74.03
2022-10-08T19:36:59.504Z,73.94
2022-10-08T19:39:30.968Z,73.87
2022-10-08T19:41:59.020Z,73.89
2022-10-08T19:44:26.996Z,73.87
2022-10-08T19:46:54.970Z,73.98
2022-10-08T19:49:24.225Z,74.02
2022-10-08T19:51:53.790Z,73.98
2022-10-08T19:54:21.819Z,74.36
2022-10-08T19:56:49.806Z,74.36
2022-10-08T19:59:18.604Z,74.62
2022-10-08T20:01:46.749Z,74.37
2022-10-08T20:04:16.811Z,74.53
2022-10-08T20:06:44.747Z,74.66
2022-10-08T20:09:14.387Z,74.46
2022-10-08T20:11:45.205Z,74.35
2022-10-08T20:14:14.486Z,74.45
2022-10-08T20:16:43.472Z,74.65
2022-10-08T20:19:19.410Z,74.59
2022-10-08T20:21:49.331Z,74.45
2022-10-08T20:24:19.033Z,74.25
2022-10-08T20:26:49.289Z,74.23
2022-10-08T20:29:20.050Z,74.51
2022-10-08T20:31:50.766Z,74.47
2022-10-08T20:34:21.203Z,74.75
2022-10-08T20:36:50.191Z,74.81
2022-10-08T20:39:19.874Z,74.78
2022-10-08T20:41:48.151Z,74.73
2022-10-08T20:44:16.864Z,74.79
2022-10-08T20:46:44.790Z,75.02
2022-10-08T20:49:13.397Z,75.31
2022-10-08T20:51:42.849Z,75.05
2022-10-08T20:54:13.678Z,75.01
2022-10-08T20:56:42.893Z,74.93
2022-10-08T20:59:16.828Z,75.20
2022-10-08T21:01:45.507Z,75.20
2022-10-08T21:04:13.602Z,75.44
2022-10-08T21:06:46.600Z,75.65
2022-10-08T21:09:16.934Z,75.68
2022-10-08T21:11:48.120Z,75.84
2022-10-08T21:14:22.635Z,76.07
2022-10-08T21:16:51.361Z,75.99
2022-10-08T21:19:22.259Z,76.19
2022-10-08T21:21:50.848Z,76.25
2022-10-08T21:24:18.755Z,76.35
2022-10-08T21:26:46.988Z,76.70
2022-10-08T21:29:15.454Z,77.05
2022-10-08T21:31:43.415Z,77.06
2022-10-08T21:34:13.059Z,77.38
2022-10-08T21:36:41.788Z,77.17
2022-10-08T21:39:15.780Z,76.89
2022-10-08T21:41:43.767Z,77.07
2022-10-08T21:44:12.314Z,76.96
2022-10-08T21:46:42.241Z,76.87
2022-10-08T21:49:16.961Z,76.60
2022-10-08T21:51:45.063Z,76.42
2022-10-08T21:54:14.106Z,76.61
2022-10-08T21:56:43.080Z,76.67
2022-10-08T21:59:14.160Z,76.55
2022-10-08T22:01:47.865Z,76.64
2022-10-08T22:04:17.425Z,76.88
2022-10-08T22:06:48.705Z,77.11
2022-10-08T22:09:20.837Z,77.20
2022-10-08T22:11:49.706Z,77.28
2022-10-08T22:14:18.321Z,77.36
2022-10-08T22:16:46.977Z,77.44
2022-10-08T22:19:16.033Z,77.24
2022-10-08T22:21:44.816Z,77.42
2022-10-08T22:24:12.643Z,77.63
2022-10-08T22:26:43.945Z,77.86
2022-10-08T22:29:12.156Z,77.69
2022-10-08T22:31:40.875Z,78.03
2022-10-08T22:34:09.032Z,78.04
2022-10-08T22:36:40.410Z,77.92
2022-10-08T22:39:09.462Z,78.25
2022-10-08T22:41:37.749Z,78.16
2022-10-08T22:44:06.345Z,78.55
2022-10-08T22:46:37.906Z,79.06
2022-10-08T22:49:11.009Z,79.33
2022-10-08T22:51:39.693Z,79.15
2022-10-08T22:54:07.963Z,79.06
2022-10-08T22:56:37.142Z,79.19
2022-10-08T22:59:05.093Z,79.57
2022-10-08T23:01:32.985Z,79.57
2022-10-08T23:04:00.902Z,79.95
2022-10-08T23:06:32.087Z,79.93
2022-10-08T23:09:03.449Z,80.21
2022-10-08T23:11:31.943Z,80.31
2022-10-08T23:14:01.029Z,80.27
2022-10-08T23:16:31.299Z,80.11
2022-10-08T23:19:01.573Z,80.37
2022-10-08T23:21:30.318Z,80.53
2022-10-08T23:23:59.512Z,80.64
2022-10-08T23:26:28.752Z,80.54
2022-10-08T23:28:59.680Z,80.73
2022-10-08T23:31:30.458Z,80.66
2022-10-08T23:34:00.956Z,80.79
2022-10-08T23:36:32.326Z,80.88
2022-10-08T23:39:00.323Z,80.79
2022-10-08T23:41:29.113Z,80.78
2022-10-08T23:43:58.727Z,81.28
2022-10-08T23:46:28.958Z,81.15
2022-10-08T23:48:58.219Z,81.13
2022-10-08T23:51:34.198Z,81.25
2022-10-08T23:54:02.344Z,80.85
2022-10-08T23:56:30.824Z,80.90
2022-10-08T23:58:59.084Z,81.20
